sensor_id;sensor_type;location;lat;lon;timestamp;temperature;humidity
20560;DHT22;10438;51.454;6.718;2022-10-04T00:01:21;12.00;99.90
20560;DHT22;10438;51.454;6.718;2022-10-04T00:03:50;12.00;99.90
20560;DHT22;10438;51.454;6.718;2022-10-04T00:06:23;12.00;99.90
20560;DHT22;10438;51.454;6.718;2022-10-04T00:08:53;11.90;99.90
20560;DHT22;10438;51.454;6.718;2022-10-04T00:11:32;11.90;99.90
20560;DHT22;10438;51.454;6.718;2022-10-04T00:14:05;11.90;99.90
20560;DHT22;10438;51.454;6.718;2022-10-04T00:16:35;11.90;99.90
20560;DHT22;10438;51.454;6.718;2022-10-04T00:22:07;11.80;99.90
20560;DHT22;10438;51.454;6.718;2022-10-04T00:24:35;11.80;99.90
20560;DHT22;10438;51.454;6.718;2022-10-04T00:27:21;11.80;99.90
20560;DHT22;10438;51.454;6.718;2022-10-04T00:32:29;11.70;99.90
20560;DHT22;10438;51.454;6.718;2022-10-04T00:34:57;11.70;99.90
20560;DHT22;10438;51.454;6.718;2022-10-04T00:37:24;11.60;99.90
20560;DHT22;10438;51.454;6.718;2022-10-04T00:39:59;11.60;99.90
20560;DHT22;10438;51.454;6.718;2022-10-04T00:45:36;11.50;99.90
20560;DHT22;10438;51.454;6.718;2022-10-04T00:48:26;11.50;99.90
20560;DHT22;10438;51.454;6.718;2022-10-04T00:51:01;11.50;99.90
20560;DHT22;10438;51.454;6.718;2022-10-04T00:53:50;11.50;99.90
20560;DHT22;10438;51.454;6.718;2022-10-04T00:56:35;11.50;99.90
20560;DHT22;10438;51.454;6.718;2022-10-04T00:59:08;11.50;99.90
20560;DHT22;10438;51.454;6.718;2022-10-04T01:01:37;11.40;99.90
20560;DHT22;10438;51.454;6.718;2022-10-04T01:04:05;11.50;99.90
20560;DHT22;10438;51.454;6.718;2022-10-04T01:06:33;11.50;99.90
20560;DHT22;10438;51.454;6.718;2022-10-04T01:09:04;11.40;99.90
20560;DHT22;10438;51.454;6.718;2022-10-04T01:11:39;11.40;99.90
20560;DHT22;10438;51.454;6.718;2022-10-04T01:14:13;11.50;99.90
20560;DHT22;10438;51.454;6.718;2022-10-04T01:16:43;11.40;99.90
20560;DHT22;10438;51.454;6.718;2022-10-04T01:19:28;11.40;99.90
20560;DHT22;10438;51.454;6.718;2022-10-04T01:22:42;11.40;99.90
20560;DHT22;10438;51.454;6.718;2022-10-04T01:24:47;11.40;99.90
20560;DHT22;10438;51.454;6.718;2022-10-04T01:27:34;11.40;99.90
20560;DHT22;10438;51.454;6.718;2022-10-04T01:30:02;11.50;99.90
20560;DHT22;10438;51.454;6.718;2022-10-04T01:32:29;11.50;99.90
20560;DHT22;10438;51.454;6.718;2022-10-04T01:34:56;11.50;99.90
20560;DHT22;10438;51.454;6.718;2022-10-04T01:37:21;11.50;99.90
20560;DHT22;10438;51.454;6.718;2022-10-04T01:39:47;11.40;99.90
20560;DHT22;10438;51.454;6.718;2022-10-04T01:42:17;11.40;99.90
20560;DHT22;10438;51.454;6.718;2022-10-04T01:47:40;11.40;99.90
20560;DHT22;10438;51.454;6.718;2022-10-04T01:50:30;11.40;99.90
20560;DHT22;10438;51.454;6.718;2022-10-04T01:55:35;11.40;99.90
20560;DHT22;10438;51.454;6.718;2022-10-04T01:58:27;11.40;99.90
20560;DHT22;10438;51.454;6.718;2022-10-04T02:01:00;11.40;99.90
20560;DHT22;10438;51.454;6.718;2022-10-04T02:03:39;11.40;99.90
20560;DHT22;10438;51.454;6.718;2022-10-04T02:06:07;11.40;99.90
20560;DHT22;10438;51.454;6.718;2022-10-04T02:08:37;11.40;99.90
20560;DHT22;10438;51.454;6.718;2022-10-04T02:11:05;11.30;99.90
20560;DHT22;10438;51.454;6.718;2022-10-04T02:13:40;11.30;99.90
20560;DHT22;10438;51.454;6.718;2022-10-04T02:16:09;11.30;99.90
20560;DHT22;10438;51.454;6.718;2022-10-04T02:18:37;11.30;99.90
20560;DHT22;10438;51.454;6.718;2022-10-04T02:21:06;11.30;99.90
20560;DHT22;10438;51.454;6.718;2022-10-04T02:23:33;11.30;99.90
20560;DHT22;10438;51.454;6.718;2022-10-04T02:26:04;11.30;99.90
20560;DHT22;10438;51.454;6.718;2022-10-04T02:28:31;11.30;99.90
20560;DHT22;10438;51.454;6.718;2022-10-04T02:30:58;11.30;99.90
20560;DHT22;10438;51.454;6.718;2022-10-04T02:33:45;11.40;99.90
20560;DHT22;10438;51.454;6.718;2022-10-04T02:36:12;11.40;99.90
20560;DHT22;10438;51.454;6.718;2022-10-04T02:38:54;11.40;99.90
20560;DHT22;10438;51.454;6.718;2022-10-04T02:42:16;11.40;99.90
20560;DHT22;10438;51.454;6.718;2022-10-04T02:44:30;11.40;99.90
20560;DHT22;10438;51.454;6.718;2022-10-04T02:47:18;11.40;99.90
20560;DHT22;10438;51.454;6.718;2022-10-04T02:50:12;11.40;99.90
20560;DHT22;10438;51.454;6.718;2022-10-04T02:52:45;11.40;99.90
20560;DHT22;10438;51.454;6.718;2022-10-04T02:55:29;11.40;99.90
20560;DHT22;10438;51.454;6.718;2022-10-04T02:57:56;11.30;99.90
20560;DHT22;10438;51.454;6.718;2022-10-04T03:00:26;11.30;99.90
20560;DHT22;10438;51.454;6.718;2022-10-04T03:03:12;11.30;99.90
20560;DHT22;10438;51.454;6.718;2022-10-04T03:05:44;11.30;99.90
20560;DHT22;10438;51.454;6.718;2022-10-04T03:08:12;11.20;99.90
20560;DHT22;10438;51.454;6.718;2022-10-04T03:10:41;11.20;99.90
20560;DHT22;10438;51.454;6.718;2022-10-04T03:13:07;11.20;99.90
20560;DHT22;10438;51.454;6.718;2022-10-04T03:15:33;11.20;99.90
20560;DHT22;10438;51.454;6.718;2022-10-04T03:17:59;11.20;99.90
20560;DHT22;10438;51.454;6.718;2022-10-04T03:20:25;11.20;99.90
20560;DHT22;10438;51.454;6.718;2022-10-04T03:22:53;11.20;99.90
20560;DHT22;10438;51.454;6.718;2022-10-04T03:25:26;11.20;99.90
20560;DHT22;10438;51.454;6.718;2022-10-04T03:27:54;11.20;99.90
20560;DHT22;10438;51.454;6.718;2022-10-04T03:30:23;11.20;99.90
20560;DHT22;10438;51.454;6.718;2022-10-04T03:32:49;11.10;99.90
20560;DHT22;10438;51.454;6.718;2022-10-04T03:35:27;11.10;99.90
20560;DHT22;10438;51.454;6.718;2022-10-04T03:37:54;11.10;99.90
20560;DHT22;10438;51.454;6.718;2022-10-04T03:40:24;11.10;99.90
20560;DHT22;10438;51.454;6.718;2022-10-04T03:42:52;11.00;99.90
20560;DHT22;10438;51.454;6.718;2022-10-04T03:45:18;11.00;99.90
20560;DHT22;10438;51.454;6.718;2022-10-04T03:47:46;11.00;99.90
20560;DHT22;10438;51.454;6.718;2022-10-04T03:50:29;11.00;99.90
20560;DHT22;10438;51.454;6.718;2022-10-04T03:53:01;11.00;99.90
20560;DHT22;10438;51.454;6.718;2022-10-04T03:55:35;10.90;99.90
20560;DHT22;10438;51.454;6.718;2022-10-04T03:58:03;11.00;99.90
20560;DHT22;10438;51.454;6.718;2022-10-04T04:00:29;11.00;99.90
20560;DHT22;10438;51.454;6.718;2022-10-04T04:02:58;11.00;99.90
20560;DHT22;10438;51.454;6.718;2022-10-04T04:05:32;11.00;99.90
20560;DHT22;10438;51.454;6.718;2022-10-04T04:08:13;11.00;99.90
20560;DHT22;10438;51.454;6.718;2022-10-04T04:10:46;10.90;99.90
20560;DHT22;10438;51.454;6.718;2022-10-04T04:13:23;10.90;99.90
20560;DHT22;10438;51.454;6.718;2022-10-04T04:15:50;10.90;99.90
20560;DHT22;10438;51.454;6.718;2022-10-04T04:18:21;10.90;99.90
20560;DHT22;10438;51.454;6.718;2022-10-04T04:20:49;10.90;99.90
20560;DHT22;10438;51.454;6.718;2022-10-04T04:23:29;10.80;99.90
20560;DHT22;10438;51.454;6.718;2022-10-04T04:26:10;10.80;99.90
20560;DHT22;10438;51.454;6.718;2022-10-04T04:28:40;10.80;99.90
20560;DHT22;10438;51.454;6.718;2022-10-04T04:31:16;10.70;99.90
20560;DHT22;10438;51.454;6.718;2022-10-04T04:34:00;10.70;99.90
20560;DHT22;10438;51.454;6.718;2022-10-04T04:36:32;10.70;99.90
20560;DHT22;10438;51.454;6.718;2022-10-04T04:39:18;10.70;99.90
20560;DHT22;10438;51.454;6.718;2022-10-04T04:45:27;10.70;99.90
20560;DHT22;10438;51.454;6.718;2022-10-04T04:47:56;10.70;99.90
20560;DHT22;10438;51.454;6.718;2022-10-04T04:50:25;10.60;99.90
20560;DHT22;10438;51.454;6.718;2022-10-04T04:52:54;10.70;99.90
20560;DHT22;10438;51.454;6.718;2022-10-04T04:55:23;10.70;99.90
20560;DHT22;10438;51.454;6.718;2022-10-04T04:57:50;10.70;99.90
20560;DHT22;10438;51.454;6.718;2022-10-04T05:00:19;10.70;99.90
20560;DHT22;10438;51.454;6.718;2022-10-04T05:02:57;10.70;99.90
20560;DHT22;10438;51.454;6.718;2022-10-04T05:05:31;10.60;99.90
20560;DHT22;10438;51.454;6.718;2022-10-04T05:08:13;10.60;99.90
20560;DHT22;10438;51.454;6.718;2022-10-04T05:11:04;10.60;99.90
20560;DHT22;10438;51.454;6.718;2022-10-04T05:13:38;10.60;99.90
20560;DHT22;10438;51.454;6.718;2022-10-04T05:16:21;10.60;99.90
20560;DHT22;10438;51.454;6.718;2022-10-04T05:19:02;10.60;99.90
20560;DHT22;10438;51.454;6.718;2022-10-04T05:21:31;10.60;99.90
20560;DHT22;10438;51.454;6.718;2022-10-04T05:24:10;10.60;99.90
20560;DHT22;10438;51.454;6.718;2022-10-04T05:26:37;10.60;99.90
20560;DHT22;10438;51.454;6.718;2022-10-04T05:29:09;10.50;99.90
20560;DHT22;10438;51.454;6.718;2022-10-04T05:34:25;10.40;99.90
20560;DHT22;10438;51.454;6.718;2022-10-04T05:37:03;10.40;99.90
20560;DHT22;10438;51.454;6.718;2022-10-04T05:39:42;10.50;99.90
20560;DHT22;10438;51.454;6.718;2022-10-04T05:42:12;10.40;99.90
20560;DHT22;10438;51.454;6.718;2022-10-04T05:44:51;10.40;99.90
20560;DHT22;10438;51.454;6.718;2022-10-04T05:47:19;10.40;99.90
20560;DHT22;10438;51.454;6.718;2022-10-04T05:49:53;10.40;99.90
20560;DHT22;10438;51.454;6.718;2022-10-04T05:52:37;10.40;99.90
20560;DHT22;10438;51.454;6.718;2022-10-04T06:07:13;10.40;99.90
20560;DHT22;10438;51.454;6.718;2022-10-04T06:12:33;10.30;99.90
20560;DHT22;10438;51.454;6.718;2022-10-04T06:24:10;10.40;99.90
20560;DHT22;10438;51.454;6.718;2022-10-04T06:26:42;10.40;99.90
20560;DHT22;10438;51.454;6.718;2022-10-04T06:29:14;10.40;99.90
20560;DHT22;10438;51.454;6.718;2022-10-04T06:51:32;10.60;99.90
20560;DHT22;10438;51.454;6.718;2022-10-04T06:54:29;10.60;99.90
20560;DHT22;10438;51.454;6.718;2022-10-04T06:57:22;10.70;99.90
20560;DHT22;10438;51.454;6.718;2022-10-04T07:03:12;10.70;99.90
20560;DHT22;10438;51.454;6.718;2022-10-04T07:05:51;10.80;99.90
20560;DHT22;10438;51.454;6.718;2022-10-04T07:08:25;10.80;99.90
20560;DHT22;10438;51.454;6.718;2022-10-04T07:13:58;10.90;99.90
20560;DHT22;10438;51.454;6.718;2022-10-04T07:16:31;10.90;99.90
20560;DHT22;10438;51.454;6.718;2022-10-04T07:27:09;11.10;99.90
20560;DHT22;10438;51.454;6.718;2022-10-04T07:29:39;11.10;99.90
20560;DHT22;10438;51.454;6.718;2022-10-04T07:32:15;11.20;99.90
20560;DHT22;10438;51.454;6.718;2022-10-04T07:35:00;11.20;99.90
20560;DHT22;10438;51.454;6.718;2022-10-04T07:37:29;11.20;99.90
20560;DHT22;10438;51.454;6.718;2022-10-04T07:40:05;11.30;99.90
20560;DHT22;10438;51.454;6.718;2022-10-04T07:45:26;11.30;99.90
20560;DHT22;10438;51.454;6.718;2022-10-04T07:48:20;11.30;99.90
20560;DHT22;10438;51.454;6.718;2022-10-04T07:53:26;11.30;99.90
20560;DHT22;10438;51.454;6.718;2022-10-04T07:56:09;11.20;99.90
20560;DHT22;10438;51.454;6.718;2022-10-04T08:10:02;11.30;99.90
20560;DHT22;10438;51.454;6.718;2022-10-04T08:13:02;11.40;99.90
20560;DHT22;10438;51.454;6.718;2022-10-04T08:15:41;11.50;99.90
20560;DHT22;10438;51.454;6.718;2022-10-04T08:18:40;11.60;99.90
20560;DHT22;10438;51.454;6.718;2022-10-04T08:21:12;11.60;99.90
20560;DHT22;10438;51.454;6.718;2022-10-04T08:24:03;11.70;99.90
20560;DHT22;10438;51.454;6.718;2022-10-04T08:26:44;11.80;99.90
20560;DHT22;10438;51.454;6.718;2022-10-04T08:29:31;12.00;99.90
20560;DHT22;10438;51.454;6.718;2022-10-04T08:32:20;12.10;99.90
20560;DHT22;10438;51.454;6.718;2022-10-04T08:46:01;12.50;99.90
20560;DHT22;10438;51.454;6.718;2022-10-04T08:48:53;12.50;99.90
20560;DHT22;10438;51.454;6.718;2022-10-04T08:52:10;12.50;99.90
20560;DHT22;10438;51.454;6.718;2022-10-04T08:54:26;12.60;99.90
20560;DHT22;10438;51.454;6.718;2022-10-04T09:17:20;15.20;99.90
20560;DHT22;10438;51.454;6.718;2022-10-04T09:22:46;15.80;99.90
20560;DHT22;10438;51.454;6.718;2022-10-04T09:31:17;16.20;99.90
20560;DHT22;10438;51.454;6.718;2022-10-04T09:34:01;16.10;99.90
20560;DHT22;10438;51.454;6.718;2022-10-04T09:36:54;16.00;99.90
20560;DHT22;10438;51.454;6.718;2022-10-04T09:42:20;15.70;99.90
20560;DHT22;10438;51.454;6.718;2022-10-04T09:48:31;16.50;99.90
20560;DHT22;10438;51.454;6.718;2022-10-04T09:51:07;17.00;99.90
20560;DHT22;10438;51.454;6.718;2022-10-04T09:53:41;17.50;99.90
20560;DHT22;10438;51.454;6.718;2022-10-04T09:56:35;17.90;99.90
20560;DHT22;10438;51.454;6.718;2022-10-04T10:11:12;18.80;99.90
20560;DHT22;10438;51.454;6.718;2022-10-04T10:17:46;18.70;99.90
20560;DHT22;10438;51.454;6.718;2022-10-04T10:37:13;19.30;99.90
20560;DHT22;10438;51.454;6.718;2022-10-04T10:39:58;19.20;99.90
20560;DHT22;10438;51.454;6.718;2022-10-04T10:45:46;19.40;99.90
20560;DHT22;10438;51.454;6.718;2022-10-04T10:48:26;19.40;99.90
20560;DHT22;10438;51.454;6.718;2022-10-04T10:51:16;19.20;99.90
20560;DHT22;10438;51.454;6.718;2022-10-04T10:53:55;19.40;99.90
20560;DHT22;10438;51.454;6.718;2022-10-04T11:04:46;19.50;98.50
20560;DHT22;10438;51.454;6.718;2022-10-04T11:10:56;19.50;97.30
20560;DHT22;10438;51.454;6.718;2022-10-04T11:13:33;19.50;98.30
20560;DHT22;10438;51.454;6.718;2022-10-04T11:16:32;19.50;93.00
20560;DHT22;10438;51.454;6.718;2022-10-04T11:42:35;19.30;92.70
20560;DHT22;10438;51.454;6.718;2022-10-04T11:47:58;19.30;82.40
20560;DHT22;10438;51.454;6.718;2022-10-04T11:50:33;19.30;90.90
20560;DHT22;10438;51.454;6.718;2022-10-04T11:53:07;19.30;87.60
20560;DHT22;10438;51.454;6.718;2022-10-04T11:58:34;19.60;88.70
20560;DHT22;10438;51.454;6.718;2022-10-04T12:07:07;19.90;83.50
20560;DHT22;10438;51.454;6.718;2022-10-04T12:12:37;19.70;85.60
20560;DHT22;10438;51.454;6.718;2022-10-04T12:29:19;19.80;94.40
20560;DHT22;10438;51.454;6.718;2022-10-04T12:31:50;19.90;97.90
20560;DHT22;10438;51.454;6.718;2022-10-04T12:35:11;20.20;93.80
20560;DHT22;10438;51.454;6.718;2022-10-04T12:37:58;20.30;93.10
20560;DHT22;10438;51.454;6.718;2022-10-04T12:40:30;20.30;92.20
20560;DHT22;10438;51.454;6.718;2022-10-04T12:45:47;20.10;92.60
20560;DHT22;10438;51.454;6.718;2022-10-04T12:48:40;20.30;96.00
20560;DHT22;10438;51.454;6.718;2022-10-04T12:54:00;20.50;95.10
20560;DHT22;10438;51.454;6.718;2022-10-04T12:56:46;20.30;93.50
20560;DHT22;10438;51.454;6.718;2022-10-04T12:59:29;20.10;87.90
20560;DHT22;10438;51.454;6.718;2022-10-04T13:07:27;19.70;96.70
20560;DHT22;10438;51.454;6.718;2022-10-04T13:15:26;20.10;92.30
20560;DHT22;10438;51.454;6.718;2022-10-04T13:18:19;20.20;85.40
20560;DHT22;10438;51.454;6.718;2022-10-04T13:20:54;20.20;83.10
20560;DHT22;10438;51.454;6.718;2022-10-04T13:23:54;20.30;88.40
20560;DHT22;10438;51.454;6.718;2022-10-04T13:26:35;20.40;86.40
20560;DHT22;10438;51.454;6.718;2022-10-04T13:32:09;20.90;83.80
20560;DHT22;10438;51.454;6.718;2022-10-04T13:34:43;20.80;73.40
20560;DHT22;10438;51.454;6.718;2022-10-04T13:37:36;20.80;77.20
20560;DHT22;10438;51.454;6.718;2022-10-04T13:43:10;20.80;77.80
20560;DHT22;10438;51.454;6.718;2022-10-04T13:48:45;20.20;86.60
20560;DHT22;10438;51.454;6.718;2022-10-04T13:54:32;20.40;87.10
20560;DHT22;10438;51.454;6.718;2022-10-04T13:57:27;20.60;81.80
20560;DHT22;10438;51.454;6.718;2022-10-04T14:00:09;20.80;82.00
20560;DHT22;10438;51.454;6.718;2022-10-04T14:03:13;20.80;79.10
20560;DHT22;10438;51.454;6.718;2022-10-04T14:08:39;20.10;80.70
20560;DHT22;10438;51.454;6.718;2022-10-04T14:23:04;18.90;99.90
20560;DHT22;10438;51.454;6.718;2022-10-04T14:31:22;18.70;99.90
20560;DHT22;10438;51.454;6.718;2022-10-04T14:34:23;18.80;99.90
20560;DHT22;10438;51.454;6.718;2022-10-04T14:40:22;18.80;99.90
20560;DHT22;10438;51.454;6.718;2022-10-04T14:54:15;19.20;96.00
20560;DHT22;10438;51.454;6.718;2022-10-04T14:56:57;19.60;93.10
20560;DHT22;10438;51.454;6.718;2022-10-04T15:04:59;20.10;74.50
20560;DHT22;10438;51.454;6.718;2022-10-04T15:07:36;20.30;76.00
20560;DHT22;10438;51.454;6.718;2022-10-04T15:10:18;20.50;81.20
20560;DHT22;10438;51.454;6.718;2022-10-04T15:13:06;20.60;75.40
20560;DHT22;10438;51.454;6.718;2022-10-04T15:15:49;20.50;70.00
20560;DHT22;10438;51.454;6.718;2022-10-04T15:23:59;19.30;95.10
20560;DHT22;10438;51.454;6.718;2022-10-04T15:32:43;18.90;98.90
20560;DHT22;10438;51.454;6.718;2022-10-04T15:41:05;18.70;99.90
20560;DHT22;10438;51.454;6.718;2022-10-04T15:43:41;18.60;99.90
20560;DHT22;10438;51.454;6.718;2022-10-04T15:46:34;18.50;99.90
20560;DHT22;10438;51.454;6.718;2022-10-04T15:52:37;18.40;99.90
20560;DHT22;10438;51.454;6.718;2022-10-04T15:55:18;18.40;99.90
20560;DHT22;10438;51.454;6.718;2022-10-04T16:00:27;18.40;99.90
20560;DHT22;10438;51.454;6.718;2022-10-04T16:03:24;18.40;99.90
20560;DHT22;10438;51.454;6.718;2022-10-04T16:08:47;18.30;99.90
20560;DHT22;10438;51.454;6.718;2022-10-04T16:22:34;18.20;99.90
20560;DHT22;10438;51.454;6.718;2022-10-04T16:30:42;17.80;99.90
20560;DHT22;10438;51.454;6.718;2022-10-04T16:33:36;17.80;99.90
20560;DHT22;10438;51.454;6.718;2022-10-04T16:36:10;17.70;99.90
20560;DHT22;10438;51.454;6.718;2022-10-04T16:38:46;17.60;99.90
20560;DHT22;10438;51.454;6.718;2022-10-04T16:41:56;17.60;99.90
20560;DHT22;10438;51.454;6.718;2022-10-04T16:44:34;17.50;99.90
20560;DHT22;10438;51.454;6.718;2022-10-04T16:47:16;17.40;99.90
20560;DHT22;10438;51.454;6.718;2022-10-04T16:49:52;17.40;99.90
20560;DHT22;10438;51.454;6.718;2022-10-04T16:55:29;17.20;99.90
20560;DHT22;10438;51.454;6.718;2022-10-04T17:12:35;16.50;99.90
20560;DHT22;10438;51.454;6.718;2022-10-04T17:15:40;16.40;99.90
20560;DHT22;10438;51.454;6.718;2022-10-04T17:19:08;16.30;99.90
20560;DHT22;10438;51.454;6.718;2022-10-04T17:21:00;16.20;99.90
20560;DHT22;10438;51.454;6.718;2022-10-04T17:29:37;15.90;99.90
20560;DHT22;10438;51.454;6.718;2022-10-04T17:32:30;15.70;99.90
20560;DHT22;10438;51.454;6.718;2022-10-04T17:35:11;15.50;99.90
20560;DHT22;10438;51.454;6.718;2022-10-04T17:37:54;15.40;99.90
20560;DHT22;10438;51.454;6.718;2022-10-04T17:46:14;15.10;99.90
20560;DHT22;10438;51.454;6.718;2022-10-04T17:48:52;15.10;99.90
20560;DHT22;10438;51.454;6.718;2022-10-04T17:51:48;15.00;99.90
20560;DHT22;10438;51.454;6.718;2022-10-04T17:54:39;15.10;99.90
20560;DHT22;10438;51.454;6.718;2022-10-04T18:00:10;15.10;99.90
20560;DHT22;10438;51.454;6.718;2022-10-04T18:05:24;15.20;99.90
20560;DHT22;10438;51.454;6.718;2022-10-04T18:08:17;15.20;99.90
20560;DHT22;10438;51.454;6.718;2022-10-04T18:11:00;15.20;99.90
20560;DHT22;10438;51.454;6.718;2022-10-04T18:17:00;15.20;99.90
20560;DHT22;10438;51.454;6.718;2022-10-04T18:18:54;15.20;99.90
20560;DHT22;10438;51.454;6.718;2022-10-04T18:21:23;15.20;99.90
20560;DHT22;10438;51.454;6.718;2022-10-04T18:24:00;15.20;99.90
20560;DHT22;10438;51.454;6.718;2022-10-04T18:26:31;15.20;99.90
20560;DHT22;10438;51.454;6.718;2022-10-04T18:28:59;15.20;99.90
20560;DHT22;10438;51.454;6.718;2022-10-04T18:31:30;15.10;99.90
20560;DHT22;10438;51.454;6.718;2022-10-04T18:34:17;15.10;99.90
20560;DHT22;10438;51.454;6.718;2022-10-04T18:39:42;15.00;99.90
20560;DHT22;10438;51.454;6.718;2022-10-04T18:44:57;15.00;99.90
20560;DHT22;10438;51.454;6.718;2022-10-04T18:47:37;15.00;99.90
20560;DHT22;10438;51.454;6.718;2022-10-04T18:52:54;15.10;99.90
20560;DHT22;10438;51.454;6.718;2022-10-04T18:55:30;15.10;99.90
20560;DHT22;10438;51.454;6.718;2022-10-04T18:58:36;15.10;99.90
20560;DHT22;10438;51.454;6.718;2022-10-04T19:06:59;15.20;99.90
20560;DHT22;10438;51.454;6.718;2022-10-04T19:12:44;15.20;99.90
20560;DHT22;10438;51.454;6.718;2022-10-04T19:20:58;15.40;99.90
20560;DHT22;10438;51.454;6.718;2022-10-04T19:24:00;15.40;99.90
20560;DHT22;10438;51.454;6.718;2022-10-04T19:26:38;15.40;99.90
20560;DHT22;10438;51.454;6.718;2022-10-04T19:32:03;15.30;99.90
20560;DHT22;10438;51.454;6.718;2022-10-04T19:34:42;15.30;99.90
20560;DHT22;10438;51.454;6.718;2022-10-04T19:37:36;15.20;99.90
20560;DHT22;10438;51.454;6.718;2022-10-04T19:40:16;15.20;99.90
20560;DHT22;10438;51.454;6.718;2022-10-04T19:42:56;15.10;99.90
20560;DHT22;10438;51.454;6.718;2022-10-04T19:46:00;15.20;99.90
20560;DHT22;10438;51.454;6.718;2022-10-04T19:48:32;15.30;99.90
20560;DHT22;10438;51.454;6.718;2022-10-04T19:51:11;15.30;99.90
20560;DHT22;10438;51.454;6.718;2022-10-04T19:53:43;15.40;99.90
20560;DHT22;10438;51.454;6.718;2022-10-04T19:56:31;15.50;99.90
20560;DHT22;10438;51.454;6.718;2022-10-04T19:59:20;15.50;99.90
20560;DHT22;10438;51.454;6.718;2022-10-04T20:01:51;15.50;99.90
20560;DHT22;10438;51.454;6.718;2022-10-04T20:04:17;15.50;99.90
20560;DHT22;10438;51.454;6.718;2022-10-04T20:07:15;15.30;99.90
20560;DHT22;10438;51.454;6.718;2022-10-04T20:17:45;15.30;99.90
20560;DHT22;10438;51.454;6.718;2022-10-04T20:23:05;15.20;99.90
20560;DHT22;10438;51.454;6.718;2022-10-04T20:31:04;15.20;99.90
20560;DHT22;10438;51.454;6.718;2022-10-04T20:36:05;15.20;99.90
20560;DHT22;10438;51.454;6.718;2022-10-04T20:38:49;15.10;99.90
20560;DHT22;10438;51.454;6.718;2022-10-04T20:43:59;15.10;99.90
20560;DHT22;10438;51.454;6.718;2022-10-04T20:46:28;15.00;99.90
20560;DHT22;10438;51.454;6.718;2022-10-04T20:49:14;15.00;99.90
20560;DHT22;10438;51.454;6.718;2022-10-04T20:51:47;14.90;99.90
20560;DHT22;10438;51.454;6.718;2022-10-04T20:54:17;14.90;99.90
20560;DHT22;10438;51.454;6.718;2022-10-04T20:56:46;14.90;99.90
20560;DHT22;10438;51.454;6.718;2022-10-04T20:59:15;14.80;99.90
20560;DHT22;10438;51.454;6.718;2022-10-04T21:01:41;14.80;99.90
20560;DHT22;10438;51.454;6.718;2022-10-04T21:04:23;14.70;99.90
20560;DHT22;10438;51.454;6.718;2022-10-04T21:07:04;14.70;99.90
20560;DHT22;10438;51.454;6.718;2022-10-04T21:09:31;14.70;99.90
20560;DHT22;10438;51.454;6.718;2022-10-04T21:11:58;14.60;99.90
20560;DHT22;10438;51.454;6.718;2022-10-04T21:14:28;14.60;99.90
20560;DHT22;10438;51.454;6.718;2022-10-04T21:16:55;14.50;99.90
20560;DHT22;10438;51.454;6.718;2022-10-04T21:22:09;14.50;99.90
20560;DHT22;10438;51.454;6.718;2022-10-04T21:24:37;14.50;99.90
20560;DHT22;10438;51.454;6.718;2022-10-04T21:27:05;14.60;99.90
20560;DHT22;10438;51.454;6.718;2022-10-04T21:29:32;14.60;99.90
20560;DHT22;10438;51.454;6.718;2022-10-04T21:31:58;14.70;99.90
20560;DHT22;10438;51.454;6.718;2022-10-04T21:34:24;14.70;99.90
20560;DHT22;10438;51.454;6.718;2022-10-04T21:36:50;14.70;99.90
20560;DHT22;10438;51.454;6.718;2022-10-04T21:39:15;14.70;99.90
20560;DHT22;10438;51.454;6.718;2022-10-04T21:41:41;14.60;99.90
20560;DHT22;10438;51.454;6.718;2022-10-04T21:44:07;14.60;99.90
20560;DHT22;10438;51.454;6.718;2022-10-04T21:46:33;14.60;99.90
20560;DHT22;10438;51.454;6.718;2022-10-04T21:48:59;14.60;99.90
20560;DHT22;10438;51.454;6.718;2022-10-04T21:51:24;14.60;99.90
20560;DHT22;10438;51.454;6.718;2022-10-04T21:53:50;14.60;99.90
20560;DHT22;10438;51.454;6.718;2022-10-04T21:56:16;14.50;99.90
20560;DHT22;10438;51.454;6.718;2022-10-04T21:58:41;14.50;99.90
20560;DHT22;10438;51.454;6.718;2022-10-04T22:01:07;14.50;99.90
20560;DHT22;10438;51.454;6.718;2022-10-04T22:03:32;14.40;99.90
20560;DHT22;10438;51.454;6.718;2022-10-04T22:05:58;14.40;99.90
20560;DHT22;10438;51.454;6.718;2022-10-04T22:08:23;14.30;99.90
20560;DHT22;10438;51.454;6.718;2022-10-04T22:10:49;14.30;99.90
20560;DHT22;10438;51.454;6.718;2022-10-04T22:13:14;14.30;99.90
20560;DHT22;10438;51.454;6.718;2022-10-04T22:15:40;14.30;99.90
20560;DHT22;10438;51.454;6.718;2022-10-04T22:18:06;14.20;99.90
20560;DHT22;10438;51.454;6.718;2022-10-04T22:20:31;14.20;99.90
20560;DHT22;10438;51.454;6.718;2022-10-04T22:22:57;14.20;99.90
20560;DHT22;10438;51.454;6.718;2022-10-04T22:25:24;14.20;99.90
20560;DHT22;10438;51.454;6.718;2022-10-04T22:27:51;14.20;99.90
20560;DHT22;10438;51.454;6.718;2022-10-04T22:30:25;14.20;99.90
20560;DHT22;10438;51.454;6.718;2022-10-04T22:32:54;14.10;99.90
20560;DHT22;10438;51.454;6.718;2022-10-04T22:35:21;14.10;99.90
20560;DHT22;10438;51.454;6.718;2022-10-04T22:37:47;14.10;99.90
20560;DHT22;10438;51.454;6.718;2022-10-04T22:40:17;14.00;99.90
20560;DHT22;10438;51.454;6.718;2022-10-04T22:42:44;13.90;99.90
20560;DHT22;10438;51.454;6.718;2022-10-04T22:45:24;13.90;99.90
20560;DHT22;10438;51.454;6.718;2022-10-04T22:47:50;13.80;99.90
20560;DHT22;10438;51.454;6.718;2022-10-04T22:50:34;13.80;99.90
20560;DHT22;10438;51.454;6.718;2022-10-04T22:53:21;13.70;99.90
20560;DHT22;10438;51.454;6.718;2022-10-04T22:55:48;13.70;99.90
20560;DHT22;10438;51.454;6.718;2022-10-04T22:58:14;13.70;99.90
20560;DHT22;10438;51.454;6.718;2022-10-04T23:00:41;13.60;99.90
20560;DHT22;10438;51.454;6.718;2022-10-04T23:03:22;13.60;99.90
20560;DHT22;10438;51.454;6.718;2022-10-04T23:05:48;13.50;99.90
20560;DHT22;10438;51.454;6.718;2022-10-04T23:08:14;13.50;99.90
20560;DHT22;10438;51.454;6.718;2022-10-04T23:10:43;13.50;99.90
20560;DHT22;10438;51.454;6.718;2022-10-04T23:13:08;13.50;99.90
20560;DHT22;10438;51.454;6.718;2022-10-04T23:15:34;13.50;99.90
20560;DHT22;10438;51.454;6.718;2022-10-04T23:17:59;13.50;99.90
20560;DHT22;10438;51.454;6.718;2022-10-04T23:20:27;13.50;99.90
20560;DHT22;10438;51.454;6.718;2022-10-04T23:22:53;13.50;99.90
20560;DHT22;10438;51.454;6.718;2022-10-04T23:25:26;13.40;99.90
20560;DHT22;10438;51.454;6.718;2022-10-04T23:27:51;13.40;99.90
20560;DHT22;10438;51.454;6.718;2022-10-04T23:30:20;13.40;99.90
20560;DHT22;10438;51.454;6.718;2022-10-04T23:32:49;13.40;99.90
20560;DHT22;10438;51.454;6.718;2022-10-04T23:35:21;13.40;99.90
20560;DHT22;10438;51.454;6.718;2022-10-04T23:37:47;13.40;99.90
20560;DHT22;10438;51.454;6.718;2022-10-04T23:40:16;13.40;99.90
20560;DHT22;10438;51.454;6.718;2022-10-04T23:42:43;13.30;99.90
20560;DHT22;10438;51.454;6.718;2022-10-04T23:45:18;13.30;99.90